x

Matinicus Rock, Me (mism1) Weather Station

7:00 - Fri 6th Mar 2015 All times are EST. -5 hours from GMT.

  • Wind
    20mph, 23mph gusts
  • Aire Temp 13°f
  • Sea Pressure 1030.1mb
  • Matinicus Rock, Me
  • Matinicus Rock, Me

More Historic Weather Station data

Upgrade to MSW Pro to gain access to the past 30 days of data for over 8000 Wavebouys and Weather Stations around the globe.

Join Pro

Comparision Forecast

View Surf forecast
   
vie 03/06 7:00 20 23 mph 1030.1mb 13f
6:00 18 22 mph 1029.5mb 13f
5:00 22 25 mph 1029.1mb 13f
4:00 23 28 mph 1028.2mb 14f
3:00 22 26 mph 1027.4mb 14f
2:00 23 30 mph 1026.7mb 14f
1:00 23 28 mph 1026mb 14f
12:00 23 25 mph 1025.4mb 15f
jue 03/05 11:00 25 31 mph 1024.5mb 17f
10:00 22 24 mph 1023.5mb 18f
9:00 23 26 mph 1022.7mb 19f
8:00 24 28 mph 1021.6mb 18f
7:00 24 26 mph 1020.7mb 19f
6:00 24 28 mph 1019.7mb 19f
5:00 25 29 mph 1018.6mb 20f
4:00 23 28 mph 1018mb 22f
3:00 24 28 mph 1017.6mb 23f
2:00 25 29 mph 1016.8mb 23f
1:00 24 30 mph 1016.6mb 24f
12:00 24 29 mph 1016.9mb 24f
11:00 28 31 mph 1016.2mb 25f
10:00 29 32 mph 1015.7mb 26f
9:00 25 28 mph 1015.1mb 29f
8:00 23 24 mph 1013.8mb 32f
7:00 20 21 mph 1012.6mb 33f
6:00 21 22 mph 1011.5mb 34f
5:00 33 36 mph 1010.6mb 35f
4:00 21 24 mph 1009mb 36f
3:00 21 22 mph 1008.1mb 36f
2:00 28 31 mph 1007.8mb 38f
1:00 30 32 mph 1006.4mb 38f
12:00 32 34 mph 1006.7mb 39f
mié 03/04 11:00 31 34 mph 1007mb 39f
10:00 25 28 mph 1005.8mb 40f
9:00 23 25 mph 1006.9mb 40f
8:00 23 25 mph 1005.8mb 40f
7:00 21 22 mph 1006.4mb 40f
6:00 20 21 mph 1005.8mb 40f
5:00 18 21 mph 1005.7mb 40f
4:00 17 18 mph 1005mb 39f
3:00 21 23 mph 1004.5mb 39f
2:00 17 20 mph 1004.5mb 38f
1:00 20 21 mph 1005mb 37f
12:00 23 25 mph 1004.9mb 37f
11:00 21 22 mph 1004.5mb 36f
10:00 22 23 mph 1004.2mb 36f
9:00 22 25 mph 1004.3mb 37f
8:00 25 28 mph 1003.9mb 36f
7:00 24 25 mph 1002.6mb 36f
6:00 23 26 mph 1001.3mb 37f
5:00 26 30 mph 1001.6mb 38f
4:00 16 17 mph 1002.5mb 38f
3:00 22 24 mph 1003.9mb 36f
2:00 33 36 mph 1005.9mb 34f
1:00 38 46 mph 1007.2mb 34f
12:00 39 43 mph 1009.4mb 31f
mar 03/03 11:00 37 43 mph 1012.3mb 29f
10:00 39 43 mph 1015.3mb 29f
9:00 34 38 mph 1017.1mb 31f
8:00 30 33 mph 1018.4mb 30f
7:00 28 32 mph 1020.2mb 30f
6:00 25 29 mph 1021.3mb 29f
5:00 17 21 mph 1022.4mb 27f
4:00 14 16 mph 1023.7mb 26f
3:00 14 16 mph 1024.7mb 25f
2:00 8 10 mph 1025.1mb 25f
1:00 14 16 mph 1026.3mb 23f
12:00 15 17 mph 1027.2mb 21f
11:00 15 17 mph 1027.6mb 19f
10:00 15 16 mph 1027.6mb 18f
9:00 17 22 mph 1027.8mb 18f
8:00 24 26 mph 1027.6mb 17f
7:00 25 26 mph 1027.1mb 18f
6:00 23 26 mph 1026.2mb 18f
5:00 31 36 mph 1024.8mb 19f
4:00 32 34 mph 1023.5mb 20f
3:00 29 33 mph 1022.6mb 20f
2:00 30 33 mph 1022mb 20f
1:00 29 32 mph 1021.2mb 21f
12:00 37 40 mph 1019.5mb 22f
lun 03/02 11:00 46 53 mph 1018.4mb 24f
10:00 40 45 mph 1017.2mb 26f
9:00 41 47 mph 1016mb 27f
8:00 41 45 mph 1015.2mb 28f
7:00 45 49 mph 1014.2mb 29f
6:00 32 34 mph 1013mb 30f
5:00 40 43 mph 1011.1mb 31f
4:00 40 45 mph 1009.9mb 31f
3:00 34 38 mph 1009.3mb 32f
2:00 37 39 mph 1008.5mb 32f